createdAt,value
2018-05-02T00:00:41.371Z,0
2018-05-02T00:01:41.075Z,0
2018-05-02T00:02:41.946Z,0
2018-05-02T00:03:41.579Z,0
2018-05-02T00:04:41.301Z,0
2018-05-02T00:05:41.276Z,0
2018-05-02T00:06:41.505Z,0
2018-05-02T00:07:41.215Z,0
2018-05-02T00:08:41.469Z,0
2018-05-02T00:09:41.714Z,0
2018-05-02T00:10:41.171Z,0
2018-05-02T00:11:41.432Z,0
2018-05-02T00:12:41.139Z,0
2018-05-02T00:13:41.116Z,0
2018-05-02T00:14:40.833Z,0
2018-05-02T00:15:41.342Z,0
2018-05-02T00:16:41.053Z,0
2018-05-02T00:17:41.309Z,0
2018-05-02T00:18:41.293Z,0
2018-05-02T00:19:41.529Z,0
2018-05-02T00:20:40.452Z,0
2018-05-02T00:21:41.239Z,0
2018-05-02T00:22:41.474Z,0
2018-05-02T00:23:40.919Z,0
2018-05-02T00:24:41.486Z,0
2018-05-02T00:25:40.886Z,0
2018-05-02T00:26:40.862Z,0
2018-05-02T00:27:40.849Z,0
2018-05-02T00:28:40.976Z,0
2018-05-02T00:29:41.077Z,0
2018-05-02T00:30:41.317Z,0
2018-05-02T00:31:40.768Z,0
2018-05-02T00:32:40.750Z,0
2018-05-02T00:33:41.273Z,0
2018-05-02T00:34:40.970Z,0
2018-05-02T00:35:41.220Z,0
2018-05-02T00:36:40.950Z,0
2018-05-02T00:37:41.179Z,0
2018-05-02T00:38:40.638Z,0
2018-05-02T00:39:40.886Z,0
2018-05-02T00:40:40.608Z,0
2018-05-02T00:41:40.312Z,0
2018-05-02T00:42:40.288Z,0
2018-05-02T00:43:41.068Z,0
2018-05-02T00:44:40.515Z,0
2018-05-02T00:45:40.497Z,0
2018-05-02T00:46:40.503Z,0
2018-05-02T00:47:40.990Z,0
2018-05-02T00:48:40.449Z,0
2018-05-02T00:49:40.165Z,0
2018-05-02T00:50:40.403Z,0
2018-05-02T00:51:40.121Z,0
2018-05-02T00:52:40.632Z,0
2018-05-02T00:53:40.350Z,0
2018-05-02T00:54:40.595Z,0
2018-05-02T00:55:40.309Z,0
2018-05-02T00:56:40.550Z,0
2018-05-02T00:57:40.279Z,0
2018-05-02T00:58:39.987Z,0
2018-05-02T00:59:40.500Z,0
2018-05-02T01:00:39.949Z,0
2018-05-02T01:01:40.476Z,0
2018-05-02T01:02:40.181Z,0
2018-05-02T01:03:40.422Z,0
2018-05-02T01:04:39.872Z,0
2018-05-02T01:05:40.398Z,0
2018-05-02T01:06:40.098Z,0
2018-05-02T01:07:40.556Z,0
2018-05-02T01:08:39.797Z,0
2018-05-02T01:09:40.040Z,0
2018-05-02T01:10:40.557Z,0
2018-05-02T01:11:40.267Z,0
2018-05-02T01:12:40.527Z,0
2018-05-02T01:13:39.703Z,0
2018-05-02T01:14:40.474Z,0
2018-05-02T01:15:40.196Z,0
2018-05-02T01:16:39.903Z,0
2018-05-02T01:17:40.160Z,0
2018-05-02T01:18:39.865Z,0
2018-05-02T01:19:40.433Z,0
2018-05-02T01:20:40.427Z,0
2018-05-02T01:21:40.074Z,0
2018-05-02T01:22:39.522Z,0
2018-05-02T01:23:39.508Z,0
2018-05-02T01:24:39.758Z,0
2018-05-02T01:25:40.263Z,0
2018-05-02T01:26:39.450Z,0
2018-05-02T01:27:39.961Z,0
2018-05-02T01:28:39.944Z,0
2018-05-02T01:29:39.677Z,0
2018-05-02T01:30:39.374Z,0
2018-05-02T01:31:39.885Z,0
2018-05-02T01:32:39.877Z,0
2018-05-02T01:33:39.593Z,0
2018-05-02T01:34:39.565Z,0
2018-05-02T01:35:39.818Z,0
2018-05-02T01:36:39.263Z,0
2018-05-02T01:37:39.314Z,0
2018-05-02T01:38:39.486Z,0
2018-05-02T01:39:39.203Z,0
2018-05-02T01:40:39.179Z,0
2018-05-02T01:41:39.427Z,0
2018-05-02T01:42:39.675Z,0
2018-05-02T01:43:39.917Z,0
2018-05-02T01:44:39.102Z,0
2018-05-02T01:45:39.358Z,0
2018-05-02T01:46:39.601Z,0
2018-05-02T01:47:39.046Z,0
2018-05-02T01:48:39.027Z,0
2018-05-02T01:49:39.549Z,0
2018-05-02T01:50:39.518Z,0
2018-05-02T01:51:39.001Z,0
2018-05-02T01:52:39.214Z,0
2018-05-02T01:53:40.366Z,0
2018-05-02T01:54:39.438Z,0
2018-05-02T01:55:39.442Z,0
2018-05-02T01:56:39.142Z,0
2018-05-02T01:57:39.135Z,0
2018-05-02T01:58:39.092Z,0
2018-05-02T01:59:39.393Z,0
2018-05-02T02:00:39.066Z,0
2018-05-02T02:01:39.048Z,0
2018-05-02T02:02:39.287Z,0
2018-05-02T02:03:39.010Z,0
2018-05-02T02:04:38.989Z,0
2018-05-02T02:05:38.964Z,0
2018-05-02T02:06:39.210Z,0
2018-05-02T02:07:38.922Z,0
2018-05-02T02:08:38.933Z,0
2018-05-02T02:09:39.421Z,0
2018-05-02T02:10:39.067Z,0
2018-05-02T02:11:38.586Z,0
2018-05-02T02:12:38.834Z,0
2018-05-02T02:13:39.073Z,0
2018-05-02T02:14:38.526Z,0
2018-05-02T02:15:38.506Z,0
2018-05-02T02:16:38.768Z,0
2018-05-02T02:17:38.741Z,0
2018-05-02T02:18:38.716Z,0
2018-05-02T02:19:38.963Z,0
2018-05-02T02:20:38.673Z,0
2018-05-02T02:21:38.650Z,0
2018-05-02T02:22:38.365Z,0
2018-05-02T02:23:38.350Z,0
2018-05-02T02:24:38.600Z,0
2018-05-02T02:25:38.575Z,0
2018-05-02T02:26:38.556Z,0
2018-05-02T02:27:38.809Z,0
2018-05-02T02:28:38.257Z,0
2018-05-02T02:29:37.963Z,0
2018-05-02T02:30:38.529Z,0
2018-05-02T02:31:38.196Z,0
2018-05-02T02:32:38.997Z,0
2018-05-02T02:33:37.895Z,0
2018-05-02T02:34:38.133Z,0
2018-05-02T02:35:38.650Z,0
2018-05-02T02:36:38.649Z,0
2018-05-02T02:37:38.895Z,0
2018-05-02T02:38:38.066Z,0
2018-05-02T02:39:38.843Z,0
2018-05-02T02:40:38.294Z,0
2018-05-02T02:41:38.531Z,0
2018-05-02T02:42:37.978Z,0
2018-05-02T02:43:37.965Z,0
2018-05-02T02:44:38.742Z,0
2018-05-02T02:45:38.189Z,0
2018-05-02T02:46:37.905Z,0
2018-05-02T02:47:38.147Z,0
2018-05-02T02:48:37.868Z,0
2018-05-02T02:49:37.854Z,0
2018-05-02T02:50:38.630Z,0
2018-05-02T02:51:37.805Z,0
2018-05-02T02:52:37.794Z,0
2018-05-02T02:53:37.760Z,0
2018-05-02T02:54:38.014Z,0
2018-05-02T02:55:38.256Z,0
2018-05-02T02:56:37.715Z,0
2018-05-02T02:57:37.769Z,0
2018-05-02T02:58:37.933Z,0
2018-05-02T02:59:38.179Z,0
2018-05-02T03:00:38.422Z,0
2018-05-02T03:01:38.145Z,0
2018-05-02T03:02:37.326Z,0
2018-05-02T03:03:38.102Z,0
2018-05-02T03:04:37.810Z,0
2018-05-02T03:05:38.388Z,0
2018-05-02T03:06:37.780Z,0
2018-05-02T03:07:37.493Z,0
2018-05-02T03:08:37.741Z,0
2018-05-02T03:09:37.454Z,0
2018-05-02T03:10:37.697Z,0
2018-05-02T03:11:37.937Z,0
2018-05-02T03:12:37.928Z,0
2018-05-02T03:13:37.929Z,0
2018-05-02T03:14:37.626Z,0
2018-05-02T03:15:37.869Z,0
2018-05-02T03:16:37.842Z,0
2018-05-02T03:17:37.563Z,0
2018-05-02T03:18:37.806Z,0
2018-05-02T03:19:38.114Z,0
2018-05-02T03:20:37.233Z,0
2018-05-02T03:21:37.747Z,0
2018-05-02T03:22:37.193Z,0
2018-05-02T03:23:37.185Z,0
2018-05-02T03:24:37.419Z,0
2018-05-02T03:25:37.661Z,0
2018-05-02T03:26:37.111Z,0
2018-05-02T03:27:37.094Z,0
2018-05-02T03:28:37.605Z,0
2018-05-02T03:29:37.590Z,0
2018-05-02T03:30:37.630Z,0
2018-05-02T03:31:37.306Z,0
2018-05-02T03:32:36.992Z,0
2018-05-02T03:33:37.511Z,0
2018-05-02T03:34:37.223Z,0
2018-05-02T03:35:36.669Z,0
2018-05-02T03:36:37.441Z,0
2018-05-02T03:37:37.233Z,0
2018-05-02T03:38:37.139Z,0
2018-05-02T03:39:37.152Z,0
2018-05-02T03:40:37.371Z,0
2018-05-02T03:41:37.086Z,0
2018-05-02T03:42:36.530Z,0
2018-05-02T03:43:37.309Z,0
2018-05-02T03:44:36.490Z,0
2018-05-02T03:45:37.542Z,0
2018-05-02T03:46:37.604Z,0
2018-05-02T03:47:37.306Z,0
2018-05-02T03:48:36.932Z,0
2018-05-02T03:49:37.184Z,0
2018-05-02T03:50:37.164Z,0
2018-05-02T03:51:36.617Z,0
2018-05-02T03:52:37.128Z,0
2018-05-02T03:53:36.580Z,0
2018-05-02T03:54:37.588Z,0
2018-05-02T03:55:36.806Z,0
2018-05-02T03:56:36.784Z,0
2018-05-02T03:57:37.319Z,0
2018-05-02T03:58:37.009Z,0
2018-05-02T03:59:37.105Z,0
2018-05-02T04:00:37.231Z,0
2018-05-02T04:01:36.427Z,0
2018-05-02T04:02:37.193Z,0
2018-05-02T04:03:36.378Z,5
2018-05-02T04:04:36.092Z,5
2018-05-02T04:05:36.609Z,5
2018-05-02T04:06:36.366Z,5
2018-05-02T04:07:36.914Z,5
2018-05-02T04:08:36.603Z,5
2018-05-02T04:09:35.994Z,5
2018-05-02T04:10:36.501Z,5
2018-05-02T04:11:36.800Z,5
2018-05-02T04:12:36.465Z,5
2018-05-02T04:13:36.179Z,10
2018-05-02T04:14:36.689Z,10
2018-05-02T04:15:36.140Z,10
2018-05-02T04:16:35.857Z,10
2018-05-02T04:17:36.894Z,10
2018-05-02T04:18:36.348Z,10
2018-05-02T04:19:36.063Z,10
2018-05-02T04:20:36.039Z,10
2018-05-02T04:21:36.549Z,10
2018-05-02T04:22:36.533Z,15
2018-05-02T04:23:36.257Z,15
2018-05-02T04:24:35.958Z,15
2018-05-02T04:25:36.475Z,15
2018-05-02T04:26:36.455Z,15
2018-05-02T04:27:36.429Z,15
2018-05-02T04:28:35.884Z,15
2018-05-02T04:29:36.399Z,15
2018-05-02T04:30:36.106Z,15
2018-05-02T04:31:36.365Z,20
2018-05-02T04:32:35.844Z,20
2018-05-02T04:33:36.046Z,20
2018-05-02T04:34:36.304Z,20
2018-05-02T04:35:36.014Z,20
2018-05-02T04:36:36.253Z,20
2018-05-02T04:37:36.247Z,20
2018-05-02T04:38:35.945Z,20
2018-05-02T04:39:36.194Z,25
2018-05-02T04:40:36.174Z,25
2018-05-02T04:41:36.157Z,25
2018-05-02T04:42:35.878Z,25
2018-05-02T04:43:35.867Z,25
2018-05-02T04:44:35.835Z,25
2018-05-02T04:45:35.545Z,25
2018-05-02T04:46:35.792Z,25
2018-05-02T04:47:35.775Z,25
2018-05-02T04:48:36.084Z,30
2018-05-02T04:49:35.487Z,30
2018-05-02T04:50:35.985Z,30
2018-05-02T04:51:35.700Z,30
2018-05-02T04:52:36.035Z,30
2018-05-02T04:53:35.126Z,30
2018-05-02T04:54:35.975Z,30
2018-05-02T04:55:35.725Z,30
2018-05-02T04:56:35.868Z,30
2018-05-02T04:57:35.314Z,35
2018-05-02T04:58:35.839Z,35
2018-05-02T04:59:35.727Z,35
2018-05-02T05:00:35.605Z,35
2018-05-02T05:01:35.231Z,35
2018-05-02T05:02:35.755Z,35
2018-05-02T05:03:34.923Z,35
2018-05-02T05:04:35.968Z,35
2018-05-02T05:05:35.426Z,35
2018-05-02T05:06:35.236Z,40
2018-05-02T05:07:35.381Z,40
2018-05-02T05:08:35.091Z,40
2018-05-02T05:09:35.077Z,40
2018-05-02T05:10:35.326Z,40
2018-05-02T05:11:35.293Z,40
2018-05-02T05:12:35.288Z,40
2018-05-02T05:13:35.536Z,40
2018-05-02T05:14:35.566Z,40
2018-05-02T05:15:35.255Z,45
2018-05-02T05:16:34.694Z,45
2018-05-02T05:17:35.725Z,45
2018-05-02T05:18:35.438Z,45
2018-05-02T05:19:34.887Z,45
2018-05-02T05:20:35.392Z,45
2018-05-02T05:21:35.119Z,45
2018-05-02T05:22:34.825Z,45
2018-05-02T05:23:35.340Z,45
2018-05-02T05:24:35.054Z,45
2018-05-02T05:25:35.035Z,45
2018-05-02T05:26:35.549Z,50
2018-05-02T05:27:35.276Z,50
2018-05-02T05:28:35.497Z,50
2018-05-02T05:29:34.957Z,50
2018-05-02T05:30:34.673Z,50
2018-05-02T05:31:34.671Z,50
2018-05-02T05:32:34.901Z,50
2018-05-02T05:33:35.146Z,50
2018-05-02T05:34:35.395Z,50
2018-05-02T05:35:34.851Z,55
2018-05-02T05:36:35.092Z,55
2018-05-02T05:37:35.078Z,55
2018-05-02T05:38:35.313Z,55
2018-05-02T05:39:35.298Z,55
2018-05-02T05:40:35.016Z,55
2018-05-02T05:41:34.737Z,55
2018-05-02T05:42:34.712Z,55
2018-05-02T05:43:35.231Z,55
2018-05-02T05:44:34.676Z,55
2018-05-02T05:45:34.665Z,55
2018-05-02T05:46:34.372Z,55
2018-05-02T05:47:35.144Z,55
2018-05-02T05:48:34.597Z,60
2018-05-02T05:49:34.577Z,60
2018-05-02T05:50:34.557Z,60
2018-05-02T05:51:34.811Z,60
2018-05-02T05:52:34.525Z,60
2018-05-02T05:53:34.763Z,60
2018-05-02T05:54:35.126Z,60
2018-05-02T05:55:34.468Z,60
2018-05-02T05:56:34.711Z,60
2018-05-02T05:57:34.165Z,60
2018-05-02T05:58:34.415Z,60
2018-05-02T05:59:34.673Z,65
2018-05-02T06:00:34.385Z,65
2018-05-02T06:01:34.355Z,65
2018-05-02T06:02:34.074Z,65
2018-05-02T06:03:34.061Z,65
2018-05-02T06:04:34.304Z,65
2018-05-02T06:05:34.284Z,65
2018-05-02T06:06:34.535Z,65
2018-05-02T06:07:33.988Z,65
2018-05-02T06:08:34.546Z,65
2018-05-02T06:09:33.948Z,65
2018-05-02T06:10:33.932Z,65
2018-05-02T06:11:33.912Z,65
2018-05-02T06:12:34.424Z,65
2018-05-02T06:13:34.400Z,70
2018-05-02T06:14:33.862Z,65
2018-05-02T06:15:34.114Z,65
2018-05-02T06:16:33.820Z,65
2018-05-02T06:17:34.068Z,65
2018-05-02T06:18:34.310Z,65
2018-05-02T06:19:33.764Z,65
2018-05-02T06:20:34.279Z,65
2018-05-02T06:21:33.731Z,70
2018-05-02T06:22:34.253Z,70
2018-05-02T06:23:34.225Z,70
2018-05-02T06:24:33.680Z,70
2018-05-02T06:25:33.392Z,70
2018-05-02T06:26:34.172Z,70
2018-05-02T06:27:34.159Z,70
2018-05-02T06:28:33.889Z,70
2018-05-02T06:29:34.143Z,70
2018-05-02T06:30:33.836Z,70
2018-05-02T06:31:33.831Z,70
2018-05-02T06:32:34.065Z,75
2018-05-02T06:33:33.791Z,75
2018-05-02T06:34:34.380Z,75
2018-05-02T06:35:33.482Z,75
2018-05-02T06:36:33.730Z,75
2018-05-02T06:37:34.026Z,75
2018-05-02T06:38:33.701Z,75
2018-05-02T06:39:33.679Z,75
2018-05-02T06:40:33.396Z,75
2018-05-02T06:41:33.920Z,75
2018-05-02T06:42:33.892Z,80
2018-05-02T06:43:34.219Z,80
2018-05-02T06:44:33.601Z,80
2018-05-02T06:45:33.581Z,80
2018-05-02T06:46:33.833Z,80
2018-05-02T06:47:34.083Z,80
2018-05-02T06:48:33.530Z,80
2018-05-02T06:49:33.772Z,80
2018-05-02T06:50:33.856Z,80
2018-05-02T06:51:33.474Z,80
2018-05-02T06:52:33.731Z,80
2018-05-02T06:53:33.178Z,80
2018-05-02T06:54:33.671Z,90
2018-05-02T06:55:33.674Z,85
2018-05-02T06:56:33.399Z,85
2018-05-02T06:57:33.387Z,85
2018-05-02T06:58:33.626Z,85
2018-05-02T06:59:33.079Z,85
2018-05-02T07:00:33.601Z,85
2018-05-02T07:01:33.322Z,85
2018-05-02T07:02:33.827Z,85
2018-05-02T07:03:33.549Z,85
2018-05-02T07:04:33.260Z,85
2018-05-02T07:05:33.247Z,85
2018-05-02T07:06:33.491Z,85
2018-05-02T07:07:33.481Z,85
2018-05-02T07:08:33.199Z,85
2018-05-02T07:09:32.918Z,90
2018-05-02T07:10:33.172Z,90
2018-05-02T07:11:33.672Z,90
2018-05-02T07:12:33.401Z,90
2018-05-02T07:13:33.668Z,90
2018-05-02T07:14:33.360Z,95
2018-05-02T07:15:33.082Z,95
2018-05-02T07:16:33.059Z,95
2018-05-02T07:17:33.050Z,95
2018-05-02T07:18:33.033Z,95
2018-05-02T07:19:32.480Z,100
2018-05-02T07:20:32.733Z,100
2018-05-02T07:21:33.249Z,100
2018-05-02T07:22:32.966Z,100
2018-05-02T07:23:33.220Z,100
2018-05-02T07:24:32.928Z,100
2018-05-02T07:25:33.445Z,100
2018-05-02T07:26:32.900Z,100
2018-05-02T07:27:32.891Z,105
2018-05-02T07:28:32.875Z,105
2018-05-02T07:29:33.393Z,105
2018-05-02T07:30:32.840Z,110
2018-05-02T07:31:33.088Z,110
2018-05-02T07:32:33.779Z,115
2018-05-02T07:33:32.866Z,115
2018-05-02T07:34:32.770Z,115
2018-05-02T07:35:32.499Z,115
2018-05-02T07:36:33.011Z,115
2018-05-02T07:37:32.791Z,120
2018-05-02T07:38:32.718Z,120
2018-05-02T07:39:32.965Z,120
2018-05-02T07:40:32.939Z,125
2018-05-02T07:41:32.933Z,125
2018-05-02T07:42:32.388Z,125
2018-05-02T07:43:32.894Z,125
2018-05-02T07:44:32.896Z,130
2018-05-02T07:45:32.610Z,130
2018-05-02T07:46:32.852Z,130
2018-05-02T07:47:32.047Z,130
2018-05-02T07:48:32.852Z,130
2018-05-02T07:49:33.100Z,130
2018-05-02T07:50:32.795Z,135
2018-05-02T07:51:32.794Z,135
2018-05-02T07:52:33.039Z,140
2018-05-02T07:53:33.027Z,135
2018-05-02T07:54:33.221Z,135
2018-05-02T07:55:32.591Z,135
2018-05-02T07:56:32.279Z,135
2018-05-02T07:57:32.177Z,140
2018-05-02T07:58:32.152Z,140
2018-05-02T07:59:32.679Z,140
2018-05-02T08:00:32.119Z,140
2018-05-02T08:01:32.108Z,140
2018-05-02T08:02:32.098Z,140
2018-05-02T08:03:32.076Z,140
2018-05-02T08:04:32.605Z,145
2018-05-02T08:05:32.048Z,145
2018-05-02T08:06:32.566Z,145
2018-05-02T08:07:32.021Z,150
2018-05-02T08:08:32.552Z,225
2018-05-02T08:09:32.524Z,870
2018-05-02T08:10:32.250Z,1290
2018-05-02T08:11:31.715Z,1335
2018-05-02T08:12:31.954Z,1360
2018-05-02T08:13:32.203Z,1350
2018-05-02T08:14:32.458Z,1325
2018-05-02T08:15:31.923Z,1365
2018-05-02T08:16:32.766Z,1420
2018-05-02T08:17:32.703Z,1320
2018-05-02T08:18:32.154Z,845
2018-05-02T08:19:32.141Z,1210
2018-05-02T08:20:32.397Z,140
2018-05-02T08:21:32.398Z,115
2018-05-02T08:22:32.641Z,1390
2018-05-02T08:23:31.850Z,110
2018-05-02T08:24:32.370Z,105
2018-05-02T08:25:31.818Z,475
2018-05-02T08:26:32.607Z,130
2018-05-02T08:27:32.326Z,125
2018-05-02T08:28:32.331Z,160
2018-05-02T08:29:32.309Z,180
2018-05-02T08:30:32.038Z,125
2018-05-02T08:31:32.295Z,110
2018-05-02T08:32:32.290Z,125
2018-05-02T08:33:32.007Z,510
2018-05-02T08:34:32.264Z,195
2018-05-02T08:35:31.990Z,190
2018-05-02T08:36:32.498Z,410
2018-05-02T08:37:32.228Z,780
2018-05-02T08:38:32.210Z,705
2018-05-02T08:39:32.463Z,420
2018-05-02T08:40:31.659Z,325
2018-05-02T08:41:31.651Z,300
2018-05-02T08:42:31.901Z,255
2018-05-02T08:43:31.895Z,240
2018-05-02T08:44:32.147Z,235
2018-05-02T08:45:31.869Z,255
2018-05-02T08:46:32.123Z,250
2018-05-02T08:47:32.382Z,205
2018-05-02T08:48:31.838Z,195
2018-05-02T08:49:32.085Z,230
2018-05-02T08:50:31.822Z,195
2018-05-02T08:51:31.799Z,215
2018-05-02T08:52:32.323Z,260
2018-05-02T08:53:31.778Z,280
2018-05-02T08:54:31.767Z,265
2018-05-02T08:55:32.024Z,210
2018-05-02T08:56:32.008Z,175
2018-05-02T08:57:32.610Z,170
2018-05-02T08:58:31.194Z,195
2018-05-02T08:59:31.171Z,230
2018-05-02T09:00:32.229Z,190
2018-05-02T09:01:31.689Z,175
2018-05-02T09:02:32.205Z,220
2018-05-02T09:03:32.198Z,220
2018-05-02T09:04:31.378Z,210
2018-05-02T09:05:32.173Z,300
2018-05-02T09:06:31.907Z,240
2018-05-02T09:07:31.872Z,235
2018-05-02T09:08:31.597Z,270
2018-05-02T09:09:31.856Z,315
2018-05-02T09:10:31.754Z,260
2018-05-02T09:11:31.567Z,315
2018-05-02T09:12:31.818Z,300
2018-05-02T09:13:31.542Z,230
2018-05-02T09:14:31.534Z,220
2018-05-02T09:15:31.330Z,285
2018-05-02T09:16:31.237Z,340
2018-05-02T09:17:31.567Z,415
2018-05-02T09:18:31.836Z,310
2018-05-02T09:19:32.002Z,305
2018-05-02T09:20:31.458Z,300
2018-05-02T09:21:31.703Z,320
2018-05-02T09:22:31.429Z,295
2018-05-02T09:23:31.167Z,280
2018-05-02T09:24:31.414Z,320
2018-05-02T09:25:31.405Z,390
2018-05-02T09:26:31.389Z,325
2018-05-02T09:27:31.637Z,265
2018-05-02T09:28:31.381Z,270
2018-05-02T09:29:31.093Z,310
2018-05-02T09:30:31.601Z,320
2018-05-02T09:31:31.603Z,235
2018-05-02T09:32:31.860Z,250
2018-05-02T09:33:31.564Z,240
2018-05-02T09:34:31.031Z,235
2018-05-02T09:35:31.072Z,230
2018-05-02T09:36:31.284Z,230
2018-05-02T09:37:31.527Z,240
2018-05-02T09:38:31.244Z,275
2018-05-02T09:39:31.500Z,270
2018-05-02T09:40:31.220Z,280
2018-05-02T09:41:31.480Z,300
2018-05-02T09:42:31.199Z,300
2018-05-02T09:43:31.193Z,285
2018-05-02T09:44:31.442Z,285
2018-05-02T09:45:30.897Z,320
2018-05-02T09:46:30.886Z,380
2018-05-02T09:47:31.407Z,340
2018-05-02T09:48:31.127Z,420
2018-05-02T09:49:30.853Z,380
2018-05-02T09:50:31.107Z,380
2018-05-02T09:51:31.624Z,355
2018-05-02T09:52:31.086Z,335
2018-05-02T09:53:31.345Z,360
2018-05-02T09:54:31.000Z,295
2018-05-02T09:55:31.317Z,330
2018-05-02T09:56:30.779Z,290
2018-05-02T09:57:31.028Z,280
2018-05-02T09:58:31.282Z,290
2018-05-02T09:59:31.023Z,295
2018-05-02T10:00:31.260Z,270
2018-05-02T10:01:30.719Z,330
2018-05-02T10:02:31.509Z,230
2018-05-02T10:03:30.974Z,235
2018-05-02T10:04:30.813Z,235
2018-05-02T10:05:31.205Z,220
2018-05-02T10:06:31.195Z,220
2018-05-02T10:07:30.926Z,230
2018-05-02T10:08:30.633Z,240
2018-05-02T10:09:31.168Z,220
2018-05-02T10:10:31.151Z,215
2018-05-02T10:11:31.141Z,215
2018-05-02T10:12:31.348Z,225
2018-05-02T10:13:30.851Z,215
2018-05-02T10:14:30.844Z,215
2018-05-02T10:15:30.569Z,225
2018-05-02T10:16:30.563Z,215
2018-05-02T10:17:30.280Z,1110
2018-05-02T10:18:30.928Z,945
2018-05-02T10:19:30.522Z,495
2018-05-02T10:20:31.061Z,1135
2018-05-02T10:21:31.303Z,1115
2018-05-02T10:22:30.494Z,1120
2018-05-02T10:23:31.014Z,675
2018-05-02T10:24:30.482Z,515
2018-05-02T10:25:31.069Z,1200
2018-05-02T10:26:30.182Z,860
2018-05-02T10:27:30.713Z,1965
2018-05-02T10:28:30.967Z,2015
2018-05-02T10:29:30.953Z,1820
2018-05-02T10:30:30.419Z,1945
2018-05-02T10:31:30.676Z,1970
2018-05-02T10:32:31.197Z,1885
2018-05-02T10:33:30.130Z,1810
2018-05-02T10:34:30.657Z,1755
2018-05-02T10:35:30.647Z,1775
2018-05-02T10:36:30.380Z,1815
2018-05-02T10:37:30.641Z,1805
2018-05-02T10:38:30.374Z,1915
2018-05-02T10:39:30.899Z,1855
2018-05-02T10:40:30.639Z,2000
2018-05-02T10:41:31.163Z,2005
2018-05-02T10:42:30.896Z,2015
2018-05-02T10:43:30.886Z,2055
2018-05-02T10:44:30.621Z,2025
2018-05-02T10:45:30.608Z,1940
2018-05-02T10:46:30.612Z,1905
2018-05-02T10:47:30.895Z,1925
2018-05-02T10:48:30.615Z,1930
2018-05-02T10:49:30.873Z,1915
2018-05-02T10:50:31.359Z,1905
2018-05-02T10:51:30.863Z,1870
2018-05-02T10:52:31.139Z,1915
2018-05-02T10:53:30.875Z,1935
2018-05-02T10:54:30.336Z,1785
2018-05-02T10:55:30.616Z,1895
2018-05-02T10:56:30.876Z,1900
2018-05-02T10:57:30.600Z,1915
2018-05-02T10:58:30.870Z,1945
2018-05-02T10:59:30.590Z,1955
2018-05-02T11:00:31.133Z,1965
2018-05-02T11:01:30.602Z,2000
2018-05-02T11:02:30.610Z,2015
2018-05-02T11:03:30.598Z,1990
2018-05-02T11:04:30.596Z,1960
2018-05-02T11:05:30.603Z,1930
2018-05-02T11:06:30.595Z,1920
2018-05-02T11:07:31.135Z,1960
2018-05-02T11:08:31.160Z,1975
2018-05-02T11:09:30.072Z,2010
2018-05-02T11:10:30.599Z,2030
2018-05-02T11:11:30.605Z,2025
2018-05-02T11:12:30.881Z,2060
2018-05-02T11:13:30.339Z,2085
2018-05-02T11:14:30.872Z,2070
2018-05-02T11:15:31.149Z,1990
2018-05-02T11:16:31.145Z,1930
2018-05-02T11:17:31.143Z,1890
2018-05-02T11:18:30.878Z,1860
2018-05-02T11:19:30.622Z,1920
2018-05-02T11:20:30.892Z,1960
2018-05-02T11:21:30.621Z,1965
2018-05-02T11:22:30.354Z,1940
2018-05-02T11:23:30.894Z,1935
2018-05-02T11:24:30.887Z,1925
2018-05-02T11:25:30.629Z,2005
2018-05-02T11:26:30.378Z,2105
2018-05-02T11:27:30.363Z,2115
2018-05-02T11:28:30.911Z,2070
2018-05-02T11:29:30.103Z,2025
2018-05-02T11:30:30.635Z,2000
2018-05-02T11:31:30.638Z,1960
2018-05-02T11:32:30.922Z,2015
2018-05-02T11:33:30.122Z,1885
2018-05-02T11:34:30.916Z,1905
2018-05-02T11:35:30.648Z,1810
2018-05-02T11:36:30.677Z,1940
2018-05-02T11:37:30.659Z,1820
2018-05-02T11:38:30.657Z,1895
2018-05-02T11:39:30.395Z,2075
2018-05-02T11:40:30.754Z,1965
2018-05-02T11:41:30.414Z,2005
2018-05-02T11:42:30.939Z,1970
2018-05-02T11:43:30.945Z,1925
2018-05-02T11:44:30.678Z,1960
2018-05-02T11:45:30.675Z,2005
2018-05-02T11:46:31.121Z,1935
2018-05-02T11:47:31.221Z,1890
2018-05-02T11:48:30.687Z,1890
2018-05-02T11:49:30.700Z,1890
2018-05-02T11:50:30.168Z,1835
2018-05-02T11:51:30.701Z,1595
2018-05-02T11:52:30.967Z,1500
2018-05-02T11:53:31.346Z,1690
2018-05-02T11:54:31.180Z,1985
2018-05-02T11:55:30.712Z,1830
2018-05-02T11:56:30.455Z,1940
2018-05-02T11:57:30.735Z,1885
2018-05-02T11:58:30.463Z,1715
2018-05-02T11:59:30.999Z,1245
2018-05-02T12:00:31.002Z,1025
2018-05-02T12:01:31.010Z,1285
2018-05-02T12:02:30.757Z,1550
2018-05-02T12:03:30.510Z,1875
2018-05-02T12:04:31.009Z,1875
2018-05-02T12:05:31.005Z,1725
2018-05-02T12:06:30.481Z,1460
2018-05-02T12:07:30.483Z,1600
2018-05-02T12:08:31.018Z,1350
2018-05-02T12:09:30.492Z,1750
2018-05-02T12:10:31.581Z,1995
2018-05-02T12:11:30.819Z,1985
2018-05-02T12:12:30.498Z,1720
2018-05-02T12:13:30.505Z,1555
2018-05-02T12:14:30.506Z,1290
2018-05-02T12:15:30.511Z,1315
2018-05-02T12:16:30.833Z,1265
2018-05-02T12:17:30.512Z,1305
2018-05-02T12:18:31.039Z,1240
2018-05-02T12:19:30.779Z,1305
2018-05-02T12:20:31.042Z,1225
2018-05-02T12:21:31.053Z,1275
2018-05-02T12:22:30.778Z,1215
2018-05-02T12:23:30.775Z,1240
2018-05-02T12:24:31.045Z,1570
2018-05-02T12:25:31.313Z,1175
2018-05-02T12:26:31.054Z,1220
2018-05-02T12:27:30.786Z,1455
2018-05-02T12:28:30.783Z,1235
2018-05-02T12:29:30.787Z,1135
2018-05-02T12:30:30.784Z,1265
2018-05-02T12:31:30.783Z,1115
2018-05-02T12:32:31.046Z,1120
2018-05-02T12:33:30.520Z,1230
2018-05-02T12:34:31.318Z,1085
2018-05-02T12:35:30.621Z,1210
2018-05-02T12:36:30.815Z,1485
2018-05-02T12:37:31.313Z,1160
2018-05-02T12:38:30.519Z,820
2018-05-02T12:39:30.791Z,790
2018-05-02T12:40:30.783Z,945
2018-05-02T12:41:31.311Z,1035
2018-05-02T12:42:30.779Z,1145
2018-05-02T12:43:31.049Z,1200
2018-05-02T12:44:31.042Z,1225
2018-05-02T12:45:31.052Z,1020
2018-05-02T12:46:30.254Z,1055
2018-05-02T12:47:30.508Z,1220
2018-05-02T12:48:30.778Z,1100
2018-05-02T12:49:31.306Z,1075
2018-05-02T12:50:30.509Z,930
2018-05-02T12:51:30.499Z,990
2018-05-02T12:52:30.502Z,875
2018-05-02T12:53:30.775Z,1130
2018-05-02T12:54:30.771Z,1165
2018-05-02T12:55:31.031Z,1415
2018-05-02T12:56:30.491Z,1305
2018-05-02T12:57:30.758Z,1155
2018-05-02T12:58:30.507Z,1420
2018-05-02T12:59:30.765Z,1445
2018-05-02T13:00:30.751Z,1440
2018-05-02T13:01:31.034Z,1610
2018-05-02T13:02:30.569Z,1295
2018-05-02T13:03:30.496Z,1170
2018-05-02T13:04:30.754Z,1385
2018-05-02T13:05:31.013Z,1560
2018-05-02T13:06:31.283Z,1385
2018-05-02T13:07:31.014Z,1360
2018-05-02T13:08:30.480Z,1425
2018-05-02T13:09:30.485Z,1425
2018-05-02T13:10:30.480Z,1195
2018-05-02T13:11:31.008Z,1415
2018-05-02T13:12:30.479Z,1210
2018-05-02T13:13:30.215Z,985
2018-05-02T13:14:30.478Z,1005
2018-05-02T13:15:31.277Z,910
2018-05-02T13:16:31.282Z,1225
2018-05-02T13:17:30.743Z,1185
2018-05-02T13:18:30.218Z,1115
2018-05-02T13:19:30.472Z,1070
2018-05-02T13:20:30.794Z,925
2018-05-02T13:21:31.274Z,1300
2018-05-02T13:22:30.999Z,1060
2018-05-02T13:23:31.233Z,990
2018-05-02T13:24:30.211Z,805
2018-05-02T13:25:30.732Z,985
2018-05-02T13:26:30.732Z,1085
2018-05-02T13:27:30.473Z,1145
2018-05-02T13:28:30.758Z,940
2018-05-02T13:29:31.004Z,1175
2018-05-02T13:30:30.737Z,1045
2018-05-02T13:31:31.013Z,1000
2018-05-02T13:32:31.258Z,975
2018-05-02T13:33:30.465Z,1470
2018-05-02T13:34:30.735Z,1210
2018-05-02T13:35:30.992Z,1350
2018-05-02T13:36:30.998Z,975
2018-05-02T13:37:30.731Z,1075
2018-05-02T13:38:31.270Z,1030
2018-05-02T13:39:30.825Z,1075
2018-05-02T13:40:30.726Z,940
2018-05-02T13:41:30.731Z,1140
2018-05-02T13:42:30.730Z,1140
2018-05-02T13:43:30.195Z,915
2018-05-02T13:44:30.720Z,835
2018-05-02T13:45:31.011Z,960
2018-05-02T13:46:30.724Z,775
2018-05-02T13:47:30.986Z,885
2018-05-02T13:48:30.730Z,850
2018-05-02T13:49:30.868Z,930
2018-05-02T13:50:30.449Z,825
2018-05-02T13:51:30.718Z,770
2018-05-02T13:52:30.456Z,610
2018-05-02T13:53:30.721Z,735
2018-05-02T13:54:31.598Z,740
2018-05-02T13:55:31.076Z,715
2018-05-02T13:56:30.715Z,705
2018-05-02T13:57:30.713Z,810
2018-05-02T13:58:30.709Z,840
2018-05-02T13:59:30.723Z,815
2018-05-02T14:00:30.979Z,785
2018-05-02T14:01:30.440Z,780
2018-05-02T14:02:30.433Z,810
2018-05-02T14:03:30.172Z,740